createdAt,value
2018-05-25T00:00:06.255Z,91.30
2018-05-25T00:01:08.480Z,91.20
2018-05-25T00:02:10.964Z,91.20
2018-05-25T00:03:06.420Z,91.30
2018-05-25T00:04:08.562Z,91.20
2018-05-25T00:05:06.606Z,91.20
2018-05-25T00:06:06.305Z,91.20
2018-05-25T00:07:08.464Z,91.20
2018-05-25T00:08:08.574Z,91.20
2018-05-25T00:09:06.624Z,91.20
2018-05-25T00:10:08.900Z,91.30
2018-05-25T00:11:06.498Z,91.30
2018-05-25T00:12:06.147Z,91.20
2018-05-25T00:13:08.430Z,91.30
2018-05-25T00:14:10.989Z,91.30
2018-05-25T00:15:10.639Z,91.20
2018-05-25T00:16:06.165Z,91.20
2018-05-25T00:17:06.809Z,91.20
2018-05-25T00:18:09.064Z,91.30
2018-05-25T00:19:08.771Z,91.30
2018-05-25T00:20:08.884Z,91.30
2018-05-25T00:21:06.582Z,91.30
2018-05-25T00:22:06.288Z,91.30
2018-05-25T00:23:06.006Z,91.20
2018-05-25T00:24:05.754Z,91.30
2018-05-25T00:25:05.664Z,91.20
2018-05-25T00:26:11.255Z,91.20
2018-05-25T00:27:13.291Z,91.10
2018-05-25T00:28:06.221Z,91.10
2018-05-25T00:29:08.390Z,91.10
2018-05-25T00:30:06.016Z,91.10
2018-05-25T00:31:05.819Z,91.10
2018-05-25T00:32:06.555Z,91.10
2018-05-25T00:33:06.408Z,91.20
2018-05-25T00:34:05.505Z,91.10
2018-05-25T00:35:08.368Z,91.10
2018-05-25T00:36:05.941Z,91.10
2018-05-25T00:37:08.117Z,91.00
2018-05-25T00:38:06.093Z,91.00
2018-05-25T00:39:05.732Z,91.10
2018-05-25T00:40:08.898Z,91.00
2018-05-25T00:41:08.520Z,91.00
2018-05-25T00:42:11.180Z,91.10
2018-05-25T00:43:08.441Z,91.10
2018-05-25T00:44:08.469Z,91.00
2018-05-25T00:45:09.221Z,91.00
2018-05-25T00:46:05.850Z,91.00
2018-05-25T00:47:06.744Z,91.00
2018-05-25T00:48:06.739Z,91.00
2018-05-25T00:49:06.412Z,91.00
2018-05-25T00:50:06.587Z,91.00
2018-05-25T00:51:08.423Z,91.00
2018-05-25T00:52:05.990Z,91.00
2018-05-25T00:53:05.811Z,91.10
2018-05-25T00:54:05.990Z,91.10
2018-05-25T00:55:06.704Z,91.20
2018-05-25T00:56:13.984Z,91.20
2018-05-25T00:57:05.694Z,91.20
2018-05-25T00:58:06.376Z,91.30
2018-05-25T00:59:06.396Z,91.30
2018-05-25T01:00:06.632Z,91.40
2018-05-25T01:01:06.496Z,91.40
2018-05-25T01:02:06.857Z,91.50
2018-05-25T01:03:10.640Z,91.50
2018-05-25T01:04:08.717Z,91.50
2018-05-25T01:05:08.898Z,91.50
2018-05-25T01:06:06.816Z,91.50
2018-05-25T01:07:06.826Z,91.60
2018-05-25T01:08:06.925Z,91.60
2018-05-25T01:09:08.040Z,91.60
2018-05-25T01:10:05.472Z,91.60
2018-05-25T01:11:05.738Z,91.50
2018-05-25T01:12:06.430Z,91.60
2018-05-25T01:13:06.474Z,91.60
2018-05-25T01:14:06.061Z,91.60
2018-05-25T01:15:05.780Z,91.70
2018-05-25T01:16:08.297Z,91.70
2018-05-25T01:17:06.001Z,91.70
2018-05-25T01:18:06.317Z,91.70
2018-05-25T01:19:06.147Z,91.80
2018-05-25T01:20:06.758Z,91.80
2018-05-25T01:21:09.010Z,91.60
2018-05-25T01:22:08.368Z,91.70
2018-05-25T01:23:05.916Z,91.70
2018-05-25T01:24:06.905Z,91.80
2018-05-25T01:25:08.755Z,91.70
2018-05-25T01:26:06.485Z,91.70
2018-05-25T01:27:06.315Z,91.70
2018-05-25T01:28:06.571Z,91.60
2018-05-25T01:29:06.687Z,91.60
2018-05-25T01:30:06.745Z,91.60
2018-05-25T01:31:06.664Z,91.70
2018-05-25T01:32:08.726Z,91.70
2018-05-25T01:33:06.189Z,91.70
2018-05-25T01:34:08.320Z,91.70
2018-05-25T01:35:06.294Z,91.70
2018-05-25T01:36:06.045Z,91.70
2018-05-25T01:37:05.811Z,91.60
2018-05-25T01:38:11.432Z,91.60
2018-05-25T01:39:08.402Z,91.70
2018-05-25T01:40:08.447Z,91.60
2018-05-25T01:41:05.739Z,91.60
2018-05-25T01:42:05.973Z,91.60
2018-05-25T01:43:10.929Z,91.60
2018-05-25T01:44:06.380Z,91.60
2018-05-25T01:45:09.927Z,91.60
2018-05-25T01:46:05.533Z,91.60
2018-05-25T01:47:06.411Z,91.60
2018-05-25T01:48:06.135Z,91.60
2018-05-25T01:49:05.872Z,91.60
2018-05-25T01:50:06.059Z,91.70
2018-05-25T01:51:08.247Z,91.70
2018-05-25T01:52:10.853Z,91.80
2018-05-25T01:53:06.552Z,91.70
2018-05-25T01:54:06.466Z,91.80
2018-05-25T01:55:06.342Z,91.80
2018-05-25T01:56:08.864Z,91.90
2018-05-25T01:57:11.458Z,91.90
2018-05-25T01:58:06.504Z,91.90
2018-05-25T01:59:06.740Z,92.00
2018-05-25T02:00:09.279Z,91.90
2018-05-25T02:01:09.178Z,92.10
2018-05-25T02:02:06.220Z,92.10
2018-05-25T02:03:08.971Z,92.10
2018-05-25T02:04:07.550Z,92.10
2018-05-25T02:05:06.491Z,92.00
2018-05-25T02:06:06.419Z,91.90
2018-05-25T02:07:08.646Z,91.80
2018-05-25T02:08:08.798Z,91.90
2018-05-25T02:09:06.876Z,91.90
2018-05-25T02:10:05.712Z,91.90
2018-05-25T02:11:06.172Z,91.90
2018-05-25T02:12:08.422Z,92.00
2018-05-25T02:13:05.902Z,92.00
2018-05-25T02:14:10.745Z,92.00
2018-05-25T02:15:05.707Z,92.00
2018-05-25T02:16:06.655Z,92.00
2018-05-25T02:17:06.417Z,92.00
2018-05-25T02:18:08.645Z,92.10
2018-05-25T02:19:06.118Z,92.10
2018-05-25T02:20:05.749Z,92.10
2018-05-25T02:21:05.689Z,92.00
2018-05-25T02:22:10.692Z,92.10
2018-05-25T02:23:11.959Z,92.10
2018-05-25T02:24:05.482Z,92.10
2018-05-25T02:25:06.816Z,92.20
2018-05-25T02:26:05.766Z,92.20
2018-05-25T02:27:11.319Z,92.20
2018-05-25T02:28:10.786Z,92.10
2018-05-25T02:29:08.896Z,92.10
2018-05-25T02:30:06.923Z,92.20
2018-05-25T02:31:06.266Z,92.10
2018-05-25T02:32:08.463Z,92.10
2018-05-25T02:33:08.544Z,92.00
2018-05-25T02:34:11.422Z,92.10
2018-05-25T02:35:08.320Z,92.10
2018-05-25T02:36:06.487Z,92.10
2018-05-25T02:37:06.895Z,92.00
2018-05-25T02:38:05.754Z,92.10
2018-05-25T02:39:06.774Z,92.10
2018-05-25T02:40:09.019Z,92.20
2018-05-25T02:41:05.741Z,92.20
2018-05-25T02:42:06.570Z,92.20
2018-05-25T02:43:06.689Z,92.10
2018-05-25T02:44:06.387Z,92.20
2018-05-25T02:45:08.659Z,92.10
2018-05-25T02:46:06.632Z,92.10
2018-05-25T02:47:06.686Z,92.20
2018-05-25T02:48:06.309Z,92.10
2018-05-25T02:49:11.053Z,92.20
2018-05-25T02:50:05.998Z,92.20
2018-05-25T02:51:06.182Z,92.20
2018-05-25T02:52:05.928Z,92.30
2018-05-25T02:53:05.774Z,92.30
2018-05-25T02:54:06.858Z,92.30
2018-05-25T02:55:06.828Z,92.30
2018-05-25T02:56:06.136Z,92.30
2018-05-25T02:57:06.096Z,92.30
2018-05-25T02:58:08.249Z,92.40
2018-05-25T02:59:05.815Z,92.30
2018-05-25T03:00:09.007Z,92.40
2018-05-25T03:01:05.497Z,92.40
2018-05-25T03:02:11.181Z,92.40
2018-05-25T03:03:05.764Z,92.50
2018-05-25T03:04:07.819Z,92.50
2018-05-25T03:05:09.009Z,92.60
2018-05-25T03:06:08.176Z,92.70
2018-05-25T03:07:10.700Z,92.70
2018-05-25T03:08:06.212Z,92.70
2018-05-25T03:09:06.069Z,92.70
2018-05-25T03:10:06.983Z,92.70
2018-05-25T03:11:08.224Z,92.70
2018-05-25T03:12:08.332Z,92.70
2018-05-25T03:13:05.892Z,92.70
2018-05-25T03:14:05.642Z,92.70
2018-05-25T03:15:06.663Z,92.80
2018-05-25T03:16:11.004Z,92.80
2018-05-25T03:17:10.918Z,92.80
2018-05-25T03:18:06.564Z,92.80
2018-05-25T03:19:08.777Z,92.70
2018-05-25T03:20:11.380Z,92.70
2018-05-25T03:21:06.356Z,92.70
2018-05-25T03:22:08.708Z,92.60
2018-05-25T03:23:08.798Z,92.70
2018-05-25T03:24:08.794Z,92.60
2018-05-25T03:25:06.660Z,92.60
2018-05-25T03:26:06.649Z,92.70
2018-05-25T03:27:08.985Z,92.70
2018-05-25T03:28:05.544Z,92.70
2018-05-25T03:29:06.861Z,92.70
2018-05-25T03:30:05.642Z,92.70
2018-05-25T03:31:06.351Z,92.70
2018-05-25T03:32:10.953Z,92.70
2018-05-25T03:33:05.650Z,92.80
2018-05-25T03:34:09.505Z,92.70
2018-05-25T03:35:08.168Z,92.70
2018-05-25T03:36:05.960Z,92.70
2018-05-25T03:37:08.203Z,92.60
2018-05-25T03:38:05.717Z,92.60
2018-05-25T03:39:13.096Z,92.60
2018-05-25T03:40:13.158Z,92.60
2018-05-25T03:41:11.400Z,92.60
2018-05-25T03:42:05.881Z,92.60
2018-05-25T03:43:09.503Z,92.50
2018-05-25T03:44:06.386Z,92.60
2018-05-25T03:45:11.165Z,92.60
2018-05-25T03:46:06.144Z,92.60
2018-05-25T03:47:05.557Z,92.50
2018-05-25T03:48:06.294Z,92.50
2018-05-25T03:49:09.577Z,92.50
2018-05-25T03:50:06.567Z,92.50
2018-05-25T03:51:06.319Z,92.50
2018-05-25T03:52:11.652Z,92.50
2018-05-25T03:53:10.931Z,92.50
2018-05-25T03:54:05.632Z,92.50
2018-05-25T03:55:06.683Z,92.50
2018-05-25T03:56:11.376Z,92.50
2018-05-25T03:57:10.837Z,92.50
2018-05-25T03:58:08.862Z,92.50
2018-05-25T03:59:09.016Z,92.40
2018-05-25T04:00:08.087Z,92.60
2018-05-25T04:01:05.969Z,92.50
2018-05-25T04:02:08.127Z,92.40
2018-05-25T04:03:05.969Z,92.40
2018-05-25T04:04:08.226Z,92.60
2018-05-25T04:05:05.670Z,92.50
2018-05-25T04:06:08.292Z,92.50
2018-05-25T04:07:06.287Z,92.50
2018-05-25T04:08:06.525Z,92.50
2018-05-25T04:09:06.269Z,92.50
2018-05-25T04:10:05.981Z,92.50
2018-05-25T04:11:06.270Z,92.40
2018-05-25T04:12:08.590Z,92.40
2018-05-25T04:13:06.495Z,92.40
2018-05-25T04:14:08.723Z,92.50
2018-05-25T04:15:06.389Z,92.40
2018-05-25T04:16:11.146Z,92.40
2018-05-25T04:17:08.337Z,92.40
2018-05-25T04:18:06.054Z,92.50
2018-05-25T04:19:06.152Z,92.50
2018-05-25T04:20:08.371Z,92.50
2018-05-25T04:21:08.414Z,92.50
2018-05-25T04:22:10.869Z,92.50
2018-05-25T04:23:08.978Z,92.50
2018-05-25T04:24:05.891Z,92.50
2018-05-25T04:25:13.550Z,92.40
2018-05-25T04:26:06.106Z,92.50
2018-05-25T04:27:05.827Z,92.40
2018-05-25T04:28:06.020Z,92.30
2018-05-25T04:29:10.930Z,92.30
2018-05-25T04:30:06.773Z,92.30
2018-05-25T04:31:08.429Z,92.20
2018-05-25T04:32:06.172Z,92.20
2018-05-25T04:33:05.911Z,92.20
2018-05-25T04:34:06.255Z,92.20
2018-05-25T04:35:06.400Z,92.30
2018-05-25T04:36:13.642Z,92.20
2018-05-25T04:37:11.626Z,92.00
2018-05-25T04:38:08.845Z,92.20
2018-05-25T04:39:06.790Z,92.20
2018-05-25T04:40:09.032Z,92.20
2018-05-25T04:41:15.750Z,92.10
2018-05-25T04:42:06.738Z,92.10
2018-05-25T04:43:08.919Z,92.10
2018-05-25T04:44:06.530Z,92.10
2018-05-25T04:45:06.500Z,92.00
2018-05-25T04:46:08.575Z,92.00
2018-05-25T04:47:06.054Z,92.00
2018-05-25T04:48:06.165Z,92.00
2018-05-25T04:49:07.246Z,92.00
2018-05-25T04:50:08.428Z,92.00
2018-05-25T04:51:06.132Z,91.90
2018-05-25T04:52:06.128Z,92.00
2018-05-25T04:53:05.806Z,92.00
2018-05-25T04:54:08.979Z,91.90
2018-05-25T04:55:10.735Z,91.90
2018-05-25T04:56:06.296Z,91.90
2018-05-25T04:57:05.961Z,91.90
2018-05-25T04:58:06.150Z,91.80
2018-05-25T04:59:05.884Z,91.80
2018-05-25T05:00:05.475Z,91.70
2018-05-25T05:01:08.623Z,91.70
2018-05-25T05:02:06.323Z,91.70
2018-05-25T05:03:13.520Z,91.60
2018-05-25T05:04:06.014Z,91.60
2018-05-25T05:05:05.933Z,91.60
2018-05-25T05:06:06.000Z,91.50
2018-05-25T05:07:08.393Z,91.60
2018-05-25T05:08:05.911Z,91.60
2018-05-25T05:09:06.309Z,91.60
2018-05-25T05:10:06.498Z,91.50
2018-05-25T05:11:05.704Z,91.60
2018-05-25T05:12:11.205Z,91.60
2018-05-25T05:13:11.604Z,91.60
2018-05-25T05:14:06.898Z,91.60
2018-05-25T05:15:06.779Z,91.50
2018-05-25T05:16:05.875Z,91.50
2018-05-25T05:17:08.180Z,91.60
2018-05-25T05:18:08.280Z,91.60
2018-05-25T05:19:05.838Z,91.60
2018-05-25T05:20:05.779Z,91.60
2018-05-25T05:21:11.549Z,91.60
2018-05-25T05:22:07.163Z,91.60
2018-05-25T05:23:06.096Z,91.70
2018-05-25T05:24:05.896Z,91.70
2018-05-25T05:25:05.613Z,91.60
2018-05-25T05:26:10.664Z,91.60
2018-05-25T05:27:09.001Z,91.60
2018-05-25T05:28:05.606Z,91.60
2018-05-25T05:29:06.407Z,91.60
2018-05-25T05:30:08.799Z,91.60
2018-05-25T05:31:06.766Z,91.60
2018-05-25T05:32:06.615Z,91.60
2018-05-25T05:33:11.333Z,91.50
2018-05-25T05:34:10.965Z,91.40
2018-05-25T05:35:06.206Z,91.40
2018-05-25T05:36:08.521Z,91.40
2018-05-25T05:37:08.904Z,91.50
2018-05-25T05:38:08.190Z,91.40
2018-05-25T05:39:05.752Z,91.30
2018-05-25T05:40:06.750Z,91.40
2018-05-25T05:41:08.964Z,91.20
2018-05-25T05:42:08.977Z,91.20
2018-05-25T05:43:06.727Z,91.20
2018-05-25T05:44:08.919Z,91.20
2018-05-25T05:45:06.602Z,91.20
2018-05-25T05:46:11.303Z,91.10
2018-05-25T05:47:06.019Z,91.10
2018-05-25T05:48:08.447Z,91.30
2018-05-25T05:49:08.452Z,91.40
2018-05-25T05:50:09.293Z,91.60
2018-05-25T05:51:13.957Z,91.90
2018-05-25T05:52:07.918Z,92.20
2018-05-25T05:53:06.134Z,92.20
2018-05-25T05:54:08.794Z,92.90
2018-05-25T05:55:06.308Z,92.90
2018-05-25T05:56:11.091Z,92.90
2018-05-25T05:57:06.426Z,92.90
2018-05-25T05:58:08.555Z,91.90
2018-05-25T05:59:08.681Z,91.00
2018-05-25T06:00:05.937Z,91.00
2018-05-25T06:01:05.988Z,90.50
2018-05-25T06:02:10.611Z,90.20
2018-05-25T06:03:06.615Z,90.00
2018-05-25T06:04:08.878Z,88.90
2018-05-25T06:05:06.528Z,88.80
2018-05-25T06:06:08.745Z,88.30
2018-05-25T06:07:11.503Z,88.30
2018-05-25T06:08:06.134Z,88.20
2018-05-25T06:09:05.823Z,88.20
2018-05-25T06:10:05.644Z,87.90
2018-05-25T06:11:10.603Z,87.90
2018-05-25T06:12:10.581Z,88.00
2018-05-25T06:13:06.208Z,88.10
2018-05-25T06:14:08.695Z,87.90
2018-05-25T06:15:06.637Z,87.90
2018-05-25T06:16:08.829Z,88.30
2018-05-25T06:17:06.716Z,88.30
2018-05-25T06:18:09.014Z,88.00
2018-05-25T06:19:05.547Z,88.00
2018-05-25T06:20:06.069Z,88.10
2018-05-25T06:21:05.742Z,88.10
2018-05-25T06:22:08.928Z,88.30
2018-05-25T06:23:05.491Z,88.30
2018-05-25T06:24:06.644Z,88.30
2018-05-25T06:25:08.627Z,88.20
2018-05-25T06:26:08.647Z,88.20
2018-05-25T06:27:06.720Z,88.20
2018-05-25T06:28:11.334Z,88.10
2018-05-25T06:29:05.928Z,88.10
2018-05-25T06:30:06.909Z,87.80
2018-05-25T06:31:11.736Z,87.50
2018-05-25T06:32:06.431Z,87.50
2018-05-25T06:33:06.140Z,87.30
2018-05-25T06:34:06.249Z,86.90
2018-05-25T06:35:06.317Z,86.80
2018-05-25T06:36:06.523Z,87.00
2018-05-25T06:37:06.520Z,86.90
2018-05-25T06:38:08.512Z,86.50
2018-05-25T06:39:08.799Z,86.30
2018-05-25T06:40:05.967Z,86.30
2018-05-25T06:41:05.658Z,86.20
2018-05-25T06:42:05.820Z,86.10
2018-05-25T06:43:06.660Z,86.50
2018-05-25T06:44:05.834Z,86.40
2018-05-25T06:45:06.044Z,86.60
2018-05-25T06:46:06.966Z,86.10
2018-05-25T06:47:05.786Z,85.20
2018-05-25T06:48:06.480Z,84.80
2018-05-25T06:49:11.721Z,83.30
2018-05-25T06:50:06.436Z,83.00
2018-05-25T06:51:06.559Z,82.70
2018-05-25T06:52:06.514Z,83.00
2018-05-25T06:53:08.769Z,84.10
2018-05-25T06:54:06.602Z,84.10
2018-05-25T06:55:09.996Z,83.00
2018-05-25T06:56:05.610Z,82.90
2018-05-25T06:57:06.253Z,81.60
2018-05-25T06:58:10.996Z,81.70
2018-05-25T06:59:11.134Z,81.70
2018-05-25T07:00:06.256Z,81.30
2018-05-25T07:01:08.515Z,80.20
2018-05-25T07:02:06.883Z,80.10
2018-05-25T07:03:05.726Z,79.40
2018-05-25T07:04:06.932Z,79.40
2018-05-25T07:05:09.316Z,79.80
2018-05-25T07:06:08.230Z,79.80
2018-05-25T07:07:08.312Z,79.20
2018-05-25T07:08:08.889Z,79.50
2018-05-25T07:09:06.693Z,79.50
2018-05-25T07:10:11.341Z,80.10
2018-05-25T07:11:05.786Z,80.30
2018-05-25T07:12:09.304Z,80.60
2018-05-25T07:13:08.818Z,80.80
2018-05-25T07:14:06.024Z,80.80
2018-05-25T07:15:06.003Z,80.80
2018-05-25T07:16:05.640Z,80.80
2018-05-25T07:17:06.433Z,81.10
2018-05-25T07:18:06.646Z,81.20
2018-05-25T07:19:06.437Z,81.40
2018-05-25T07:20:11.063Z,81.30
2018-05-25T07:21:05.975Z,81.10
2018-05-25T07:22:05.677Z,80.80
2018-05-25T07:23:06.405Z,80.30
2018-05-25T07:24:05.978Z,80.80
2018-05-25T07:25:05.964Z,81.00
2018-05-25T07:26:08.659Z,81.30
2018-05-25T07:27:06.264Z,81.30
2018-05-25T07:28:06.047Z,81.20
2018-05-25T07:29:06.220Z,81.00
2018-05-25T07:30:08.262Z,80.40
2018-05-25T07:31:08.366Z,80.40
2018-05-25T07:32:08.714Z,80.80
2018-05-25T07:33:06.163Z,80.80
2018-05-25T07:34:10.952Z,80.90
2018-05-25T07:35:06.731Z,81.10
2018-05-25T07:36:08.991Z,81.20
2018-05-25T07:37:06.562Z,81.20
2018-05-25T07:38:07.647Z,81.40
2018-05-25T07:39:06.876Z,81.40
2018-05-25T07:40:06.097Z,81.00
2018-05-25T07:41:05.825Z,80.90
2018-05-25T07:42:05.832Z,80.80
2018-05-25T07:43:08.243Z,80.90
2018-05-25T07:44:05.878Z,80.90
2018-05-25T07:45:05.999Z,81.10
2018-05-25T07:46:06.291Z,80.90
2018-05-25T07:47:08.578Z,80.80
2018-05-25T07:48:06.424Z,80.80
2018-05-25T07:49:06.192Z,80.90
2018-05-25T07:50:08.280Z,80.70
2018-05-25T07:51:11.033Z,80.70
2018-05-25T07:52:06.003Z,80.70
2018-05-25T07:53:05.811Z,80.80
2018-05-25T07:54:08.821Z,81.10
2018-05-25T07:55:06.416Z,81.10
2018-05-25T07:56:06.466Z,81.20
2018-05-25T07:57:06.145Z,81.30
2018-05-25T07:58:08.416Z,81.70
2018-05-25T07:59:08.588Z,81.60
2018-05-25T08:00:08.709Z,81.60
2018-05-25T08:01:06.750Z,81.60
2018-05-25T08:02:06.285Z,81.60
2018-05-25T08:03:05.711Z,81.70
2018-05-25T08:04:06.424Z,81.80
2018-05-25T08:05:06.260Z,81.80
2018-05-25T08:06:08.262Z,82.00
2018-05-25T08:07:05.708Z,82.00
2018-05-25T08:08:05.814Z,82.20
2018-05-25T08:09:06.847Z,82.20
2018-05-25T08:10:06.208Z,81.80
2018-05-25T08:11:06.085Z,81.40
2018-05-25T08:12:08.346Z,80.90
2018-05-25T08:13:08.636Z,80.80
2018-05-25T08:14:06.295Z,80.90
2018-05-25T08:15:06.025Z,80.70
2018-05-25T08:16:06.100Z,80.60
2018-05-25T08:17:05.776Z,80.90
2018-05-25T08:18:09.040Z,80.90
2018-05-25T08:19:08.464Z,81.00
2018-05-25T08:20:09.404Z,81.00
2018-05-25T08:21:06.197Z,81.00
2018-05-25T08:22:06.001Z,81.10
2018-05-25T08:23:11.267Z,81.10
2018-05-25T08:24:06.156Z,81.10
2018-05-25T08:25:10.897Z,81.10
2018-05-25T08:26:06.622Z,81.10
2018-05-25T08:27:11.328Z,81.10
2018-05-25T08:28:08.845Z,81.20
2018-05-25T08:29:06.647Z,81.20
2018-05-25T08:30:06.472Z,81.40
2018-05-25T08:31:11.391Z,81.80
2018-05-25T08:32:05.989Z,81.80
2018-05-25T08:33:10.589Z,81.60
2018-05-25T08:34:08.648Z,81.60
2018-05-25T08:35:08.603Z,81.60
2018-05-25T08:36:06.165Z,81.50
2018-05-25T08:37:08.369Z,81.70
2018-05-25T08:38:08.338Z,81.90
2018-05-25T08:39:06.355Z,82.00
2018-05-25T08:40:11.334Z,81.90
2018-05-25T08:41:08.164Z,82.10
2018-05-25T08:42:06.019Z,82.10
2018-05-25T08:43:08.244Z,82.10
2018-05-25T08:44:06.891Z,82.10
2018-05-25T08:45:10.587Z,81.90
2018-05-25T08:46:06.064Z,81.90
2018-05-25T08:47:05.824Z,81.80
2018-05-25T08:48:09.058Z,81.60
2018-05-25T08:49:09.054Z,81.30
2018-05-25T08:50:06.262Z,81.40
2018-05-25T08:51:08.692Z,81.70
2018-05-25T08:52:06.536Z,81.60
2018-05-25T08:53:06.400Z,81.30
2018-05-25T08:54:08.696Z,81.00
2018-05-25T08:55:08.611Z,81.00
2018-05-25T08:56:11.084Z,81.10
2018-05-25T08:57:11.609Z,81.10
2018-05-25T08:58:06.312Z,80.90
2018-05-25T08:59:06.319Z,80.70
2018-05-25T09:00:06.040Z,79.90
2018-05-25T09:01:06.174Z,79.40
2018-05-25T09:02:10.776Z,78.90
2018-05-25T09:03:06.298Z,78.90
2018-05-25T09:04:06.419Z,79.60
2018-05-25T09:05:08.145Z,79.40
2018-05-25T09:06:05.736Z,79.30
2018-05-25T09:07:10.581Z,78.60
2018-05-25T09:08:11.091Z,78.60
2018-05-25T09:09:10.566Z,78.30
2018-05-25T09:10:10.972Z,78.50
2018-05-25T09:11:10.558Z,78.40
2018-05-25T09:12:06.114Z,78.40
2018-05-25T09:13:05.710Z,78.50
2018-05-25T09:14:06.501Z,78.30
2018-05-25T09:15:08.584Z,77.50
2018-05-25T09:16:08.687Z,77.50
2018-05-25T09:17:06.246Z,77.50
2018-05-25T09:18:06.172Z,77.60
2018-05-25T09:19:10.986Z,77.20
2018-05-25T09:20:07.361Z,77.10
2018-05-25T09:21:09.517Z,76.60
2018-05-25T09:22:06.353Z,76.60
2018-05-25T09:23:08.650Z,76.60
2018-05-25T09:24:08.774Z,76.60
2018-05-25T09:25:11.394Z,76.40
2018-05-25T09:26:06.383Z,76.40
2018-05-25T09:27:06.242Z,76.40
2018-05-25T09:28:06.212Z,75.80
2018-05-25T09:29:05.739Z,75.70
2018-05-25T09:30:06.058Z,75.40
2018-05-25T09:31:08.145Z,75.60
2018-05-25T09:32:08.062Z,74.70
2018-05-25T09:33:05.560Z,74.70
2018-05-25T09:34:06.253Z,74.80
2018-05-25T09:35:06.274Z,75.10
2018-05-25T09:36:05.987Z,74.80
2018-05-25T09:37:05.591Z,74.60
2018-05-25T09:38:08.788Z,74.90
2018-05-25T09:39:06.548Z,75.00
2018-05-25T09:40:08.839Z,75.30
2018-05-25T09:41:08.346Z,75.50
2018-05-25T09:42:05.967Z,75.50
2018-05-25T09:43:08.266Z,75.30
2018-05-25T09:44:08.394Z,75.30
2018-05-25T09:45:05.854Z,75.30
2018-05-25T09:46:05.577Z,75.40
2018-05-25T09:47:06.417Z,75.60
2018-05-25T09:48:11.097Z,75.30
2018-05-25T09:49:06.786Z,75.20
2018-05-25T09:50:06.462Z,75.30
2018-05-25T09:51:06.105Z,75.10
2018-05-25T09:52:05.897Z,75.30
2018-05-25T09:53:08.082Z,75.40
2018-05-25T09:54:08.171Z,75.60
2018-05-25T09:55:05.674Z,75.50
2018-05-25T09:56:11.554Z,75.30
2018-05-25T09:57:11.257Z,75.30
2018-05-25T09:58:05.636Z,75.30
2018-05-25T09:59:08.691Z,75.10
2018-05-25T10:00:08.699Z,75.20
2018-05-25T10:01:10.661Z,74.90
2018-05-25T10:02:07.294Z,74.80
2018-05-25T10:03:08.417Z,74.30
2018-05-25T10:04:06.070Z,74.30
2018-05-25T10:05:05.608Z,74.60
2018-05-25T10:06:06.226Z,74.40
2018-05-25T10:07:05.802Z,74.60
2018-05-25T10:08:08.942Z,73.20
2018-05-25T10:09:08.840Z,73.20
2018-05-25T10:10:11.798Z,73.60
2018-05-25T10:11:06.459Z,73.70
2018-05-25T10:12:08.755Z,73.60
2018-05-25T10:13:08.770Z,73.70
2018-05-25T10:14:06.245Z,73.50
2018-05-25T10:15:06.100Z,73.60
2018-05-25T10:16:08.806Z,73.40
2018-05-25T10:17:08.864Z,73.20
2018-05-25T10:18:06.343Z,73.20
2018-05-25T10:19:08.430Z,73.40
2018-05-25T10:20:06.025Z,73.40
2018-05-25T10:21:06.841Z,73.30
2018-05-25T10:22:09.029Z,72.70
2018-05-25T10:23:05.448Z,72.80
2018-05-25T10:24:05.813Z,71.90
2018-05-25T10:25:11.603Z,72.60
2018-05-25T10:26:09.326Z,72.40
2018-05-25T10:27:06.227Z,72.50
2018-05-25T10:28:08.618Z,71.90
2018-05-25T10:29:08.555Z,71.50
2018-05-25T10:30:05.725Z,71.50
2018-05-25T10:31:06.343Z,71.50
2018-05-25T10:32:06.127Z,70.70
2018-05-25T10:33:05.858Z,69.70
2018-05-25T10:34:13.130Z,67.60
2018-05-25T10:35:05.717Z,67.70
2018-05-25T10:36:06.958Z,68.00
2018-05-25T10:37:10.730Z,68.40
2018-05-25T10:38:06.164Z,69.00
2018-05-25T10:39:08.340Z,68.80
2018-05-25T10:40:06.121Z,68.80
2018-05-25T10:41:05.973Z,68.80
2018-05-25T10:42:08.234Z,69.60
2018-05-25T10:43:08.277Z,69.90
2018-05-25T10:44:05.805Z,70.10
2018-05-25T10:45:10.617Z,70.30
2018-05-25T10:46:06.260Z,70.60
2018-05-25T10:47:08.693Z,71.40
2018-05-25T10:48:06.131Z,71.50
2018-05-25T10:49:08.392Z,71.50
2018-05-25T10:50:06.428Z,71.50
2018-05-25T10:51:08.561Z,71.20
2018-05-25T10:52:06.179Z,71.20
2018-05-25T10:53:05.820Z,71.30
2018-05-25T10:54:05.634Z,71.50
2018-05-25T10:55:08.921Z,71.20
2018-05-25T10:56:13.125Z,71.00
2018-05-25T10:57:08.211Z,71.20
2018-05-25T10:58:05.743Z,71.20
2018-05-25T10:59:13.900Z,71.20
2018-05-25T11:00:06.360Z,71.30
2018-05-25T11:01:08.787Z,71.10
2018-05-25T11:02:06.858Z,71.10
2018-05-25T11:03:06.951Z,70.80
2018-05-25T11:04:05.670Z,70.80
2018-05-25T11:05:06.373Z,71.00
2018-05-25T11:06:06.196Z,71.10
2018-05-25T11:07:08.475Z,70.90
2018-05-25T11:08:06.236Z,70.90
2018-05-25T11:09:06.456Z,70.70
2018-05-25T11:10:06.633Z,70.80
2018-05-25T11:11:08.906Z,70.50
2018-05-25T11:12:09.006Z,70.50
2018-05-25T11:13:07.567Z,70.50
2018-05-25T11:14:06.061Z,70.80
2018-05-25T11:15:05.730Z,70.70
2018-05-25T11:16:11.480Z,70.60
2018-05-25T11:17:11.081Z,70.60
2018-05-25T11:18:06.324Z,70.80
2018-05-25T11:19:11.051Z,70.50
2018-05-25T11:20:08.733Z,70.80
2018-05-25T11:21:09.735Z,71.10
2018-05-25T11:22:06.445Z,71.00
2018-05-25T11:23:05.889Z,71.00
2018-05-25T11:24:08.314Z,70.90
2018-05-25T11:25:08.394Z,69.60
2018-05-25T11:26:05.866Z,69.60
2018-05-25T11:27:06.497Z,68.60
2018-05-25T11:28:17.414Z,68.80
2018-05-25T11:29:06.253Z,68.70
2018-05-25T11:30:08.309Z,68.10
2018-05-25T11:31:09.424Z,68.20
2018-05-25T11:32:08.572Z,67.70
2018-05-25T11:33:06.051Z,67.70
2018-05-25T11:34:06.139Z,68.40
2018-05-25T11:35:08.420Z,68.50
2018-05-25T11:36:11.155Z,68.60
2018-05-25T11:37:10.821Z,68.70
2018-05-25T11:38:06.655Z,68.70
2018-05-25T11:39:06.463Z,68.40
2018-05-25T11:40:07.076Z,68.80
2018-05-25T11:41:05.827Z,68.80
2018-05-25T11:42:11.535Z,69.20
2018-05-25T11:43:08.169Z,68.00
2018-05-25T11:44:15.636Z,67.90
2018-05-25T11:45:13.256Z,67.50
2018-05-25T11:46:06.023Z,67.40
2018-05-25T11:47:08.356Z,67.00
2018-05-25T11:48:06.326Z,67.00
2018-05-25T11:49:08.538Z,66.70
2018-05-25T11:50:08.485Z,67.20
2018-05-25T11:51:05.895Z,67.10
2018-05-25T11:52:10.558Z,66.90
2018-05-25T11:53:11.018Z,67.10
2018-05-25T11:54:06.245Z,67.10
2018-05-25T11:55:06.349Z,67.20
2018-05-25T11:56:06.131Z,67.30
2018-05-25T11:57:05.894Z,67.60
2018-05-25T11:58:10.499Z,66.60
2018-05-25T11:59:05.946Z,66.80
2018-05-25T12:00:08.081Z,67.00
2018-05-25T12:01:08.101Z,66.40
2018-05-25T12:02:06.345Z,66.40
2018-05-25T12:03:06.248Z,65.80
2018-05-25T12:04:06.054Z,65.20
2018-05-25T12:05:05.578Z,65.80
2018-05-25T12:06:08.769Z,66.00
2018-05-25T12:07:06.722Z,66.00
2018-05-25T12:08:08.532Z,64.30
2018-05-25T12:09:08.575Z,64.90
2018-05-25T12:10:06.064Z,64.90
2018-05-25T12:11:06.825Z,64.50
2018-05-25T12:12:06.380Z,64.40
2018-05-25T12:13:07.418Z,64.10
2018-05-25T12:14:10.926Z,64.40
2018-05-25T12:15:06.523Z,65.00
2018-05-25T12:16:11.118Z,64.80
2018-05-25T12:17:05.886Z,64.70
2018-05-25T12:18:05.742Z,64.60
2018-05-25T12:19:06.497Z,64.90
2018-05-25T12:20:05.996Z,65.10
2018-05-25T12:21:10.776Z,64.10
2018-05-25T12:22:08.691Z,64.50
2018-05-25T12:23:06.237Z,64.50
2018-05-25T12:24:06.417Z,64.60
2018-05-25T12:25:08.543Z,65.30
2018-05-25T12:26:08.639Z,65.60
2018-05-25T12:27:06.150Z,65.60
2018-05-25T12:28:10.843Z,65.70
2018-05-25T12:29:11.386Z,65.60
2018-05-25T12:30:10.693Z,65.60
2018-05-25T12:31:06.284Z,65.40
2018-05-25T12:32:06.466Z,65.50
2018-05-25T12:33:08.723Z,65.70
2018-05-25T12:34:06.693Z,65.70
2018-05-25T12:35:08.967Z,65.90
2018-05-25T12:36:11.711Z,66.00
2018-05-25T12:37:05.924Z,66.00
2018-05-25T12:38:08.184Z,65.30
2018-05-25T12:39:08.695Z,64.70
2018-05-25T12:40:06.391Z,64.40
2018-05-25T12:41:06.315Z,61.40
2018-05-25T12:42:10.962Z,59.80
2018-05-25T12:43:08.573Z,61.40
2018-05-25T12:44:05.730Z,61.50
2018-05-25T12:45:06.360Z,61.60
2018-05-25T12:46:06.360Z,61.00
2018-05-25T12:47:05.960Z,59.30
2018-05-25T12:48:06.045Z,58.80
2018-05-25T12:49:08.808Z,59.00
2018-05-25T12:50:06.455Z,59.00
2018-05-25T12:51:12.458Z,58.40
2018-05-25T12:52:06.591Z,58.40